Погода Новодугинона 2 недели

Смоленская область, Россия

26 мая-08 июня
  • 26мая
    Сегодня
    +10°
    +26°
    Небольшая облачность
    ВремяПогодаТемператураВлажностьДавлениеВетер, м/сВероятность осадков
    00:00Ясно и безоблачно+12°C59 %748 мм2.7 м/с2 %
    03:00Ясно и безоблачно+9°C72 %747 мм2.6 м/с2 %
    06:00Ясно и безоблачно+12°C72 %748 мм2.5 м/с2 %
    09:00Ясно и безоблачно+20°C59 %748 мм1.1 м/с2 %
    12:00Практически безоблачно+24°C40 %748 мм2.2 м/с2 %
    15:00Небольшая облачность+26°C36 %748 мм2.1 м/с5 %
    18:00Практически безоблачно+23°C50 %748 мм2.7 м/с11 %
    21:00Ясно и безоблачно+19°C72 %748 мм2.4 м/с3 %
  • 27мая
    Понедельник
    +11°
    +25°
    Практически безоблачно
    ВремяПогодаТемператураВлажностьДавлениеВетер, м/сВероятность осадков
    00:00Практически безоблачно+14°C86 %748 мм2.5 м/с2 %
    03:00Небольшая облачность+11°C93 %749 мм2.3 м/с2 %
    06:00Ясно и безоблачно+12°C84 %749 мм2.4 м/с2 %
    09:00Ясно и безоблачно+19°C62 %750 мм1.9 м/с2 %
    12:00Практически безоблачно+23°C51 %749 мм2.2 м/с9 %
    15:00Практически безоблачно+24°C43 %749 мм2.0 м/с13 %
    18:00Практически безоблачно+25°C41 %748 мм1.2 м/с8 %
    21:00Пасмурно, сплошная облачность+20°C60 %747 мм2.3 м/с2 %
  • 28мая
    Вторник
    +11°
    +25°
    Практически безоблачно
    ВремяПогодаТемператураВлажностьДавлениеВетер, м/сВероятность осадков
    00:00Облачно с прояснениями+15°C61 %747 мм2.2 м/с2 %
    03:00Практически безоблачно+12°C70 %747 мм2.2 м/с2 %
    06:00Небольшая облачность+14°C71 %747 мм2.5 м/с2 %
    09:00Облачно с прояснениями+21°C55 %747 мм2.0 м/с2 %
    12:00Облачно с прояснениями+24°C45 %747 мм1.7 м/с3 %
    15:00Практически безоблачно+25°C40 %746 мм1.9 м/с7 %
    18:00Ясно и безоблачно+25°C39 %745 мм2.2 м/с8 %
    21:00Ясно и безоблачно+20°C57 %744 мм1.5 м/с3 %
  • 29мая
    Среда
    +11°
    +26°
    Практически безоблачно
    ВремяПогодаТемператураВлажностьДавлениеВетер, м/сВероятность осадков
    00:00Ясно и безоблачно+14°C65 %744 мм2.6 м/с2 %
    03:00Ясно и безоблачно+12°C76 %743 мм1.9 м/с2 %
    06:00Ясно и безоблачно+13°C79 %743 мм1.8 м/с2 %
    09:00Ясно и безоблачно+23°C53 %743 мм1.7 м/с2 %
    12:00Практически безоблачно+25°C38 %743 мм0.6 м/с14 %
    15:00Практически безоблачно+25°C38 %741 мм0.5 м/с27 %
    18:00Облачно с прояснениями+25°C45 %741 мм2.0 м/с37 %
    21:00Облачно с прояснениями+20°C73 %741 мм1.4 м/с6 %
  • 30мая
    Четверг
    +11°
    +27°
    Облачно с прояснениями
    ВремяПогодаТемператураВлажностьДавлениеВетер, м/сВероятность осадков
    00:00Ясно и безоблачно+16°C78 %740 мм1.2 м/с2 %
    03:00Ясно и безоблачно+12°C92 %740 мм1.5 м/с2 %
    06:00Ясно и безоблачно+14°C88 %740 мм1.1 м/с2 %
    09:00Ясно и безоблачно+22°C61 %740 мм1.2 м/с2 %
    12:00Практически безоблачно+26°C44 %740 мм0.8 м/с7 %
    15:00Облачно с прояснениями+26°C36 %739 мм2.4 м/с18 %
    18:00Небольшая облачность+27°C33 %739 мм1.0 м/с25 %
    21:00Практически безоблачно+21°C63 %739 мм2.5 м/с14 %
Мы используем cookies
Соглашаюсь